sensor_id;sensor_type;location;lat;lon;timestamp;P1;durP1;ratioP1;P2;durP2;ratioP2
41229;SDS011;26964;50.428;19.218;2022-10-26T00:03:16;58.3;;;39.5;;
41229;SDS011;26964;50.428;19.218;2022-10-26T00:08:15;49.5;;;36.0;;
41229;SDS011;26964;50.428;19.218;2022-10-26T00:13:15;59.0;;;39.5;;
41229;SDS011;26964;50.428;19.218;2022-10-26T00:18:15;56.5;;;38.1;;
41229;SDS011;26964;50.428;19.218;2022-10-26T00:23:15;56.5;;;38.0;;
41229;SDS011;26964;50.428;19.218;2022-10-26T00:28:15;50.9;;;37.9;;
41229;SDS011;26964;50.428;19.218;2022-10-26T00:33:15;56.9;;;36.5;;
41229;SDS011;26964;50.428;19.218;2022-10-26T00:38:15;69.9;;;42.7;;
41229;SDS011;26964;50.428;19.218;2022-10-26T00:43:31;58.2;;;40.8;;
41229;SDS011;26964;50.428;19.218;2022-10-26T00:48:17;91.0;;;41.9;;
41229;SDS011;26964;50.428;19.218;2022-10-26T00:53:16;92.7;;;61.5;;
41229;SDS011;26964;50.428;19.218;2022-10-26T00:58:15;108.8;;;52.8;;
41229;SDS011;26964;50.428;19.218;2022-10-26T01:03:15;68.9;;;41.8;;
41229;SDS011;26964;50.428;19.218;2022-10-26T01:08:15;62.7;;;41.4;;
41229;SDS011;26964;50.428;19.218;2022-10-26T01:13:15;61.2;;;39.6;;
41229;SDS011;26964;50.428;19.218;2022-10-26T01:18:17;56.4;;;37.6;;
41229;SDS011;26964;50.428;19.218;2022-10-26T01:23:16;58.3;;;37.7;;
41229;SDS011;26964;50.428;19.218;2022-10-26T01:38:16;61.0;;;39.3;;
41229;SDS011;26964;50.428;19.218;2022-10-26T01:43:15;54.5;;;38.1;;
41229;SDS011;26964;50.428;19.218;2022-10-26T01:48:16;73.3;;;37.7;;
41229;SDS011;26964;50.428;19.218;2022-10-26T01:53:15;68.0;;;36.0;;
41229;SDS011;26964;50.428;19.218;2022-10-26T02:03:15;52.1;;;36.2;;
41229;SDS011;26964;50.428;19.218;2022-10-26T02:13:17;54.2;;;36.7;;
41229;SDS011;26964;50.428;19.218;2022-10-26T02:18:18;47.7;;;34.2;;
41229;SDS011;26964;50.428;19.218;2022-10-26T02:23:15;51.1;;;35.4;;
41229;SDS011;26964;50.428;19.218;2022-10-26T02:28:16;64.1;;;46.0;;
41229;SDS011;26964;50.428;19.218;2022-10-26T02:33:15;60.9;;;42.6;;
41229;SDS011;26964;50.428;19.218;2022-10-26T02:38:15;83.5;;;60.6;;
41229;SDS011;26964;50.428;19.218;2022-10-26T02:43:16;81.4;;;58.2;;
41229;SDS011;26964;50.428;19.218;2022-10-26T02:48:16;192.1;;;47.0;;
41229;SDS011;26964;50.428;19.218;2022-10-26T02:53:16;132.6;;;35.8;;
41229;SDS011;26964;50.428;19.218;2022-10-26T02:58:18;108.3;;;35.9;;
41229;SDS011;26964;50.428;19.218;2022-10-26T03:03:15;87.8;;;39.8;;
41229;SDS011;26964;50.428;19.218;2022-10-26T03:08:15;65.3;;;37.1;;
41229;SDS011;26964;50.428;19.218;2022-10-26T03:13:15;57.7;;;37.6;;
41229;SDS011;26964;50.428;19.218;2022-10-26T03:18:16;87.1;;;38.0;;
41229;SDS011;26964;50.428;19.218;2022-10-26T03:23:16;122.0;;;39.8;;
41229;SDS011;26964;50.428;19.218;2022-10-26T03:28:15;109.9;;;37.1;;
41229;SDS011;26964;50.428;19.218;2022-10-26T03:33:15;56.2;;;39.2;;
41229;SDS011;26964;50.428;19.218;2022-10-26T03:38:15;55.1;;;37.6;;
41229;SDS011;26964;50.428;19.218;2022-10-26T03:43:15;60.0;;;39.6;;
41229;SDS011;26964;50.428;19.218;2022-10-26T03:48:16;77.2;;;43.4;;
41229;SDS011;26964;50.428;19.218;2022-10-26T03:53:15;147.2;;;41.6;;
41229;SDS011;26964;50.428;19.218;2022-10-26T03:58:15;71.7;;;38.0;;
41229;SDS011;26964;50.428;19.218;2022-10-26T04:03:15;58.1;;;36.8;;
41229;SDS011;26964;50.428;19.218;2022-10-26T04:08:15;49.4;;;33.4;;
41229;SDS011;26964;50.428;19.218;2022-10-26T04:13:15;72.8;;;33.9;;
41229;SDS011;26964;50.428;19.218;2022-10-26T04:18:15;51.0;;;34.1;;
41229;SDS011;26964;50.428;19.218;2022-10-26T04:23:16;45.2;;;32.2;;
41229;SDS011;26964;50.428;19.218;2022-10-26T04:28:15;56.3;;;31.6;;
41229;SDS011;26964;50.428;19.218;2022-10-26T04:33:15;44.9;;;31.0;;
41229;SDS011;26964;50.428;19.218;2022-10-26T04:38:15;47.5;;;31.4;;
41229;SDS011;26964;50.428;19.218;2022-10-26T04:43:15;47.4;;;32.5;;
41229;SDS011;26964;50.428;19.218;2022-10-26T04:48:15;70.1;;;38.0;;
41229;SDS011;26964;50.428;19.218;2022-10-26T04:53:15;79.3;;;40.2;;
41229;SDS011;26964;50.428;19.218;2022-10-26T04:58:15;168.4;;;41.5;;
41229;SDS011;26964;50.428;19.218;2022-10-26T05:03:15;140.7;;;42.1;;
41229;SDS011;26964;50.428;19.218;2022-10-26T05:08:15;153.4;;;42.0;;
41229;SDS011;26964;50.428;19.218;2022-10-26T05:13:15;59.0;;;37.1;;
41229;SDS011;26964;50.428;19.218;2022-10-26T05:18:15;48.6;;;34.2;;
41229;SDS011;26964;50.428;19.218;2022-10-26T05:23:15;64.9;;;36.9;;
41229;SDS011;26964;50.428;19.218;2022-10-26T05:28:15;62.3;;;34.4;;
41229;SDS011;26964;50.428;19.218;2022-10-26T05:33:15;67.9;;;37.5;;
41229;SDS011;26964;50.428;19.218;2022-10-26T05:38:15;68.2;;;38.0;;
41229;SDS011;26964;50.428;19.218;2022-10-26T05:43:15;63.8;;;36.9;;
41229;SDS011;26964;50.428;19.218;2022-10-26T05:48:15;58.6;;;33.8;;
41229;SDS011;26964;50.428;19.218;2022-10-26T05:53:14;50.9;;;32.6;;
41229;SDS011;26964;50.428;19.218;2022-10-26T05:58:15;61.3;;;32.1;;
41229;SDS011;26964;50.428;19.218;2022-10-26T06:03:18;52.5;;;31.8;;
41229;SDS011;26964;50.428;19.218;2022-10-26T06:08:15;55.4;;;32.4;;
41229;SDS011;26964;50.428;19.218;2022-10-26T06:13:15;60.5;;;32.3;;
41229;SDS011;26964;50.428;19.218;2022-10-26T06:18:16;39.3;;;28.1;;
41229;SDS011;26964;50.428;19.218;2022-10-26T06:28:17;40.7;;;28.4;;
41229;SDS011;26964;50.428;19.218;2022-10-26T06:33:15;56.3;;;33.8;;
41229;SDS011;26964;50.428;19.218;2022-10-26T06:38:15;109.8;;;58.2;;
41229;SDS011;26964;50.428;19.218;2022-10-26T06:43:16;74.0;;;43.9;;
41229;SDS011;26964;50.428;19.218;2022-10-26T06:48:15;70.0;;;37.6;;
41229;SDS011;26964;50.428;19.218;2022-10-26T06:53:17;78.9;;;41.0;;
41229;SDS011;26964;50.428;19.218;2022-10-26T06:58:15;70.8;;;40.6;;
41229;SDS011;26964;50.428;19.218;2022-10-26T07:03:15;95.7;;;52.3;;
41229;SDS011;26964;50.428;19.218;2022-10-26T07:08:14;78.5;;;43.1;;
41229;SDS011;26964;50.428;19.218;2022-10-26T07:13:15;90.7;;;48.0;;
41229;SDS011;26964;50.428;19.218;2022-10-26T07:18:14;66.4;;;38.6;;
41229;SDS011;26964;50.428;19.218;2022-10-26T07:23:14;60.9;;;38.8;;
41229;SDS011;26964;50.428;19.218;2022-10-26T07:28:14;62.4;;;39.2;;
41229;SDS011;26964;50.428;19.218;2022-10-26T07:33:14;60.7;;;39.9;;
41229;SDS011;26964;50.428;19.218;2022-10-26T07:38:15;64.6;;;41.2;;
41229;SDS011;26964;50.428;19.218;2022-10-26T07:43:14;67.6;;;42.4;;
41229;SDS011;26964;50.428;19.218;2022-10-26T07:48:14;64.7;;;42.0;;
41229;SDS011;26964;50.428;19.218;2022-10-26T07:53:15;65.2;;;44.2;;
41229;SDS011;26964;50.428;19.218;2022-10-26T07:58:14;72.8;;;45.2;;
41229;SDS011;26964;50.428;19.218;2022-10-26T08:03:15;73.3;;;46.5;;
41229;SDS011;26964;50.428;19.218;2022-10-26T08:08:15;73.6;;;44.6;;
41229;SDS011;26964;50.428;19.218;2022-10-26T08:13:14;74.1;;;46.2;;
41229;SDS011;26964;50.428;19.218;2022-10-26T08:18:14;62.3;;;42.5;;
41229;SDS011;26964;50.428;19.218;2022-10-26T08:23:14;58.4;;;41.3;;
41229;SDS011;26964;50.428;19.218;2022-10-26T08:28:14;57.6;;;38.1;;
41229;SDS011;26964;50.428;19.218;2022-10-26T08:33:14;50.5;;;33.4;;
41229;SDS011;26964;50.428;19.218;2022-10-26T08:38:14;51.4;;;34.4;;
41229;SDS011;26964;50.428;19.218;2022-10-26T08:43:15;50.4;;;34.4;;
41229;SDS011;26964;50.428;19.218;2022-10-26T08:48:15;47.8;;;33.0;;
41229;SDS011;26964;50.428;19.218;2022-10-26T08:53:16;49.3;;;33.3;;
41229;SDS011;26964;50.428;19.218;2022-10-26T08:58:15;48.0;;;30.4;;
41229;SDS011;26964;50.428;19.218;2022-10-26T09:03:14;40.2;;;29.6;;
41229;SDS011;26964;50.428;19.218;2022-10-26T09:08:16;41.3;;;27.5;;
41229;SDS011;26964;50.428;19.218;2022-10-26T09:13:17;41.4;;;27.4;;
41229;SDS011;26964;50.428;19.218;2022-10-26T09:18:17;37.0;;;25.9;;
41229;SDS011;26964;50.428;19.218;2022-10-26T09:28:15;34.7;;;24.5;;
41229;SDS011;26964;50.428;19.218;2022-10-26T09:33:15;28.0;;;19.4;;
41229;SDS011;26964;50.428;19.218;2022-10-26T09:38:15;26.1;;;17.9;;
41229;SDS011;26964;50.428;19.218;2022-10-26T09:43:15;28.9;;;18.5;;
41229;SDS011;26964;50.428;19.218;2022-10-26T09:48:15;27.8;;;20.3;;
41229;SDS011;26964;50.428;19.218;2022-10-26T09:53:14;40.6;;;19.6;;
41229;SDS011;26964;50.428;19.218;2022-10-26T09:58:15;30.3;;;17.2;;
41229;SDS011;26964;50.428;19.218;2022-10-26T10:03:16;23.4;;;16.6;;
41229;SDS011;26964;50.428;19.218;2022-10-26T10:08:15;24.9;;;16.5;;
41229;SDS011;26964;50.428;19.218;2022-10-26T10:13:14;24.7;;;16.2;;
41229;SDS011;26964;50.428;19.218;2022-10-26T10:23:17;26.6;;;16.8;;
41229;SDS011;26964;50.428;19.218;2022-10-26T10:33:14;23.1;;;14.3;;
41229;SDS011;26964;50.428;19.218;2022-10-26T10:38:14;23.9;;;14.6;;
41229;SDS011;26964;50.428;19.218;2022-10-26T10:43:14;23.1;;;15.7;;
41229;SDS011;26964;50.428;19.218;2022-10-26T10:48:15;24.0;;;15.1;;
41229;SDS011;26964;50.428;19.218;2022-10-26T10:53:15;23.9;;;13.0;;
41229;SDS011;26964;50.428;19.218;2022-10-26T10:58:16;19.0;;;12.2;;
41229;SDS011;26964;50.428;19.218;2022-10-26T11:08:16;20.2;;;11.7;;
41229;SDS011;26964;50.428;19.218;2022-10-26T11:13:15;20.7;;;10.9;;
41229;SDS011;26964;50.428;19.218;2022-10-26T11:18:15;17.5;;;10.6;;
41229;SDS011;26964;50.428;19.218;2022-10-26T11:23:15;21.6;;;10.6;;
41229;SDS011;26964;50.428;19.218;2022-10-26T11:28:15;16.3;;;10.3;;
41229;SDS011;26964;50.428;19.218;2022-10-26T11:33:15;17.7;;;9.4;;
41229;SDS011;26964;50.428;19.218;2022-10-26T11:38:15;14.5;;;7.7;;
41229;SDS011;26964;50.428;19.218;2022-10-26T11:43:15;14.5;;;8.1;;
41229;SDS011;26964;50.428;19.218;2022-10-26T11:48:15;15.3;;;7.8;;
41229;SDS011;26964;50.428;19.218;2022-10-26T11:53:15;13.7;;;6.6;;
41229;SDS011;26964;50.428;19.218;2022-10-26T11:58:14;20.0;;;9.5;;
41229;SDS011;26964;50.428;19.218;2022-10-26T12:03:15;12.7;;;6.9;;
41229;SDS011;26964;50.428;19.218;2022-10-26T12:08:16;15.8;;;6.8;;
41229;SDS011;26964;50.428;19.218;2022-10-26T12:13:16;11.1;;;5.3;;
41229;SDS011;26964;50.428;19.218;2022-10-26T12:18:15;16.6;;;6.8;;
41229;SDS011;26964;50.428;19.218;2022-10-26T12:23:14;19.3;;;8.1;;
41229;SDS011;26964;50.428;19.218;2022-10-26T12:53:14;10.9;;;4.9;;
41229;SDS011;26964;50.428;19.218;2022-10-26T13:08:14;10.5;;;4.1;;
41229;SDS011;26964;50.428;19.218;2022-10-26T13:18:15;6.7;;;3.1;;
41229;SDS011;26964;50.428;19.218;2022-10-26T13:23:14;6.4;;;2.8;;
41229;SDS011;26964;50.428;19.218;2022-10-26T13:33:16;9.2;;;4.0;;
41229;SDS011;26964;50.428;19.218;2022-10-26T13:38:15;7.1;;;2.8;;
41229;SDS011;26964;50.428;19.218;2022-10-26T13:43:15;6.9;;;3.0;;
41229;SDS011;26964;50.428;19.218;2022-10-26T13:48:16;7.5;;;2.8;;
41229;SDS011;26964;50.428;19.218;2022-10-26T13:53:15;8.6;;;4.2;;
41229;SDS011;26964;50.428;19.218;2022-10-26T13:58:16;12.4;;;6.0;;
41229;SDS011;26964;50.428;19.218;2022-10-26T14:08:15;8.6;;;3.9;;
41229;SDS011;26964;50.428;19.218;2022-10-26T14:13:14;12.8;;;4.2;;
41229;SDS011;26964;50.428;19.218;2022-10-26T14:18:15;7.6;;;3.4;;
41229;SDS011;26964;50.428;19.218;2022-10-26T14:38:16;26.9;;;13.4;;
41229;SDS011;26964;50.428;19.218;2022-10-26T14:43:15;17.3;;;10.2;;
41229;SDS011;26964;50.428;19.218;2022-10-26T14:53:15;90.3;;;57.3;;
41229;SDS011;26964;50.428;19.218;2022-10-26T14:58:15;259.8;;;138.3;;
41229;SDS011;26964;50.428;19.218;2022-10-26T15:03:14;59.1;;;29.7;;
41229;SDS011;26964;50.428;19.218;2022-10-26T15:18:16;8.5;;;3.1;;
41229;SDS011;26964;50.428;19.218;2022-10-26T15:23:14;6.8;;;2.5;;
41229;SDS011;26964;50.428;19.218;2022-10-26T15:38:14;7.9;;;3.3;;
41229;SDS011;26964;50.428;19.218;2022-10-26T15:43:14;5.7;;;2.7;;
41229;SDS011;26964;50.428;19.218;2022-10-26T15:48:15;5.0;;;2.9;;
41229;SDS011;26964;50.428;19.218;2022-10-26T15:53:15;6.0;;;3.0;;
41229;SDS011;26964;50.428;19.218;2022-10-26T15:58:14;9.1;;;3.5;;
41229;SDS011;26964;50.428;19.218;2022-10-26T16:03:16;11.0;;;5.2;;
41229;SDS011;26964;50.428;19.218;2022-10-26T16:08:14;11.8;;;4.4;;
41229;SDS011;26964;50.428;19.218;2022-10-26T16:13:14;18.4;;;5.6;;
41229;SDS011;26964;50.428;19.218;2022-10-26T16:18:14;12.3;;;4.9;;
41229;SDS011;26964;50.428;19.218;2022-10-26T16:23:14;18.3;;;7.6;;
41229;SDS011;26964;50.428;19.218;2022-10-26T16:28:15;14.6;;;4.8;;
41229;SDS011;26964;50.428;19.218;2022-10-26T16:33:14;8.6;;;4.2;;
41229;SDS011;26964;50.428;19.218;2022-10-26T16:38:13;7.8;;;4.4;;
41229;SDS011;26964;50.428;19.218;2022-10-26T16:43:14;8.6;;;4.9;;
41229;SDS011;26964;50.428;19.218;2022-10-26T16:48:13;7.8;;;4.5;;
41229;SDS011;26964;50.428;19.218;2022-10-26T16:53:13;10.4;;;5.7;;
41229;SDS011;26964;50.428;19.218;2022-10-26T16:58:13;11.2;;;6.7;;
41229;SDS011;26964;50.428;19.218;2022-10-26T17:03:14;20.0;;;7.8;;
41229;SDS011;26964;50.428;19.218;2022-10-26T17:08:13;14.9;;;8.6;;
41229;SDS011;26964;50.428;19.218;2022-10-26T17:13:13;15.7;;;10.3;;
41229;SDS011;26964;50.428;19.218;2022-10-26T17:18:14;17.2;;;9.8;;
41229;SDS011;26964;50.428;19.218;2022-10-26T17:23:13;20.9;;;9.7;;
41229;SDS011;26964;50.428;19.218;2022-10-26T17:28:13;18.9;;;9.1;;
41229;SDS011;26964;50.428;19.218;2022-10-26T17:33:13;16.1;;;8.8;;
41229;SDS011;26964;50.428;19.218;2022-10-26T17:38:13;19.9;;;10.5;;
41229;SDS011;26964;50.428;19.218;2022-10-26T17:43:14;19.0;;;10.8;;
41229;SDS011;26964;50.428;19.218;2022-10-26T17:48:14;29.8;;;15.3;;
41229;SDS011;26964;50.428;19.218;2022-10-26T17:53:13;29.6;;;16.5;;
41229;SDS011;26964;50.428;19.218;2022-10-26T17:58:13;34.2;;;19.6;;
41229;SDS011;26964;50.428;19.218;2022-10-26T18:03:14;30.2;;;17.2;;
41229;SDS011;26964;50.428;19.218;2022-10-26T18:08:13;33.7;;;17.5;;
41229;SDS011;26964;50.428;19.218;2022-10-26T18:13:14;24.7;;;12.9;;
41229;SDS011;26964;50.428;19.218;2022-10-26T18:18:14;20.3;;;10.3;;
41229;SDS011;26964;50.428;19.218;2022-10-26T18:23:14;30.0;;;17.4;;
41229;SDS011;26964;50.428;19.218;2022-10-26T18:28:14;28.5;;;15.9;;
41229;SDS011;26964;50.428;19.218;2022-10-26T18:33:13;25.1;;;13.3;;
41229;SDS011;26964;50.428;19.218;2022-10-26T18:38:15;30.6;;;19.4;;
41229;SDS011;26964;50.428;19.218;2022-10-26T18:43:14;157.7;;;74.9;;
41229;SDS011;26964;50.428;19.218;2022-10-26T18:48:14;123.1;;;56.9;;
41229;SDS011;26964;50.428;19.218;2022-10-26T18:53:14;109.9;;;52.1;;
41229;SDS011;26964;50.428;19.218;2022-10-26T18:58:13;60.4;;;32.9;;
41229;SDS011;26964;50.428;19.218;2022-10-26T19:03:13;45.7;;;26.1;;
41229;SDS011;26964;50.428;19.218;2022-10-26T19:08:14;34.6;;;22.1;;
41229;SDS011;26964;50.428;19.218;2022-10-26T19:13:13;33.0;;;20.0;;
41229;SDS011;26964;50.428;19.218;2022-10-26T19:18:13;31.0;;;18.4;;
41229;SDS011;26964;50.428;19.218;2022-10-26T19:23:13;26.7;;;16.0;;
41229;SDS011;26964;50.428;19.218;2022-10-26T19:28:13;28.6;;;17.5;;
41229;SDS011;26964;50.428;19.218;2022-10-26T19:33:13;30.1;;;19.0;;
41229;SDS011;26964;50.428;19.218;2022-10-26T19:38:13;37.4;;;24.3;;
41229;SDS011;26964;50.428;19.218;2022-10-26T19:43:13;37.8;;;24.3;;
41229;SDS011;26964;50.428;19.218;2022-10-26T19:48:13;54.9;;;34.7;;
41229;SDS011;26964;50.428;19.218;2022-10-26T19:53:13;52.1;;;31.3;;
41229;SDS011;26964;50.428;19.218;2022-10-26T19:58:14;55.1;;;33.6;;
41229;SDS011;26964;50.428;19.218;2022-10-26T20:03:14;62.4;;;35.7;;
41229;SDS011;26964;50.428;19.218;2022-10-26T20:08:15;56.3;;;35.2;;
41229;SDS011;26964;50.428;19.218;2022-10-26T20:13:13;59.6;;;36.2;;
41229;SDS011;26964;50.428;19.218;2022-10-26T20:18:13;54.7;;;32.5;;
41229;SDS011;26964;50.428;19.218;2022-10-26T20:23:13;43.4;;;27.1;;
41229;SDS011;26964;50.428;19.218;2022-10-26T20:28:14;41.6;;;26.3;;
41229;SDS011;26964;50.428;19.218;2022-10-26T20:33:13;41.3;;;26.1;;
41229;SDS011;26964;50.428;19.218;2022-10-26T20:38:15;40.5;;;26.4;;
41229;SDS011;26964;50.428;19.218;2022-10-26T20:43:15;44.1;;;29.1;;
41229;SDS011;26964;50.428;19.218;2022-10-26T20:48:13;71.0;;;41.4;;
41229;SDS011;26964;50.428;19.218;2022-10-26T20:53:17;97.6;;;56.8;;
41229;SDS011;26964;50.428;19.218;2022-10-26T20:58:17;54.3;;;31.5;;
41229;SDS011;26964;50.428;19.218;2022-10-26T21:03:13;43.1;;;27.9;;
41229;SDS011;26964;50.428;19.218;2022-10-26T21:08:13;47.8;;;28.7;;
41229;SDS011;26964;50.428;19.218;2022-10-26T21:13:13;52.7;;;32.1;;
41229;SDS011;26964;50.428;19.218;2022-10-26T21:18:13;62.4;;;39.2;;
41229;SDS011;26964;50.428;19.218;2022-10-26T21:23:13;68.8;;;41.0;;
41229;SDS011;26964;50.428;19.218;2022-10-26T21:28:13;68.5;;;40.9;;
41229;SDS011;26964;50.428;19.218;2022-10-26T21:33:13;66.5;;;40.4;;
41229;SDS011;26964;50.428;19.218;2022-10-26T21:38:13;72.7;;;40.8;;
41229;SDS011;26964;50.428;19.218;2022-10-26T21:43:13;92.9;;;46.6;;
41229;SDS011;26964;50.428;19.218;2022-10-26T21:48:14;89.0;;;45.1;;
41229;SDS011;26964;50.428;19.218;2022-10-26T21:53:13;76.7;;;42.5;;
41229;SDS011;26964;50.428;19.218;2022-10-26T21:58:14;69.3;;;39.4;;
41229;SDS011;26964;50.428;19.218;2022-10-26T22:03:14;69.4;;;42.3;;
41229;SDS011;26964;50.428;19.218;2022-10-26T22:08:13;76.6;;;49.6;;
41229;SDS011;26964;50.428;19.218;2022-10-26T22:13:13;71.9;;;47.7;;
41229;SDS011;26964;50.428;19.218;2022-10-26T22:18:13;71.9;;;45.0;;
41229;SDS011;26964;50.428;19.218;2022-10-26T22:23:13;72.8;;;46.0;;
41229;SDS011;26964;50.428;19.218;2022-10-26T22:28:13;66.6;;;43.1;;
41229;SDS011;26964;50.428;19.218;2022-10-26T22:33:13;67.9;;;43.0;;
41229;SDS011;26964;50.428;19.218;2022-10-26T22:38:13;64.3;;;40.2;;
41229;SDS011;26964;50.428;19.218;2022-10-26T22:43:13;60.3;;;39.4;;
41229;SDS011;26964;50.428;19.218;2022-10-26T22:48:13;60.9;;;40.3;;
41229;SDS011;26964;50.428;19.218;2022-10-26T22:53:13;57.7;;;39.2;;
41229;SDS011;26964;50.428;19.218;2022-10-26T22:58:13;58.9;;;38.7;;
41229;SDS011;26964;50.428;19.218;2022-10-26T23:03:13;55.4;;;38.6;;
41229;SDS011;26964;50.428;19.218;2022-10-26T23:08:13;58.6;;;38.2;;
41229;SDS011;26964;50.428;19.218;2022-10-26T23:13:13;60.7;;;40.0;;
41229;SDS011;26964;50.428;19.218;2022-10-26T23:18:13;65.0;;;41.4;;
41229;SDS011;26964;50.428;19.218;2022-10-26T23:23:13;62.6;;;41.1;;
41229;SDS011;26964;50.428;19.218;2022-10-26T23:28:14;66.2;;;42.4;;
41229;SDS011;26964;50.428;19.218;2022-10-26T23:33:13;72.0;;;43.6;;
41229;SDS011;26964;50.428;19.218;2022-10-26T23:38:14;68.0;;;41.1;;
41229;SDS011;26964;50.428;19.218;2022-10-26T23:43:13;65.7;;;41.3;;
41229;SDS011;26964;50.428;19.218;2022-10-26T23:48:13;62.9;;;40.8;;
41229;SDS011;26964;50.428;19.218;2022-10-26T23:53:13;73.6;;;44.0;;
41229;SDS011;26964;50.428;19.218;2022-10-26T23:58:13;67.5;;;41.1;;
